sensor_id;sensor_type;location;lat;lon;timestamp;P1;durP1;ratioP1;P2;durP2;ratioP2
32473;SDS011;41885;53.190;7.984;2022-08-21T00:03:30;3.70;;;1.52;;
32473;SDS011;41885;53.190;7.984;2022-08-21T00:07:32;5.80;;;1.67;;
32473;SDS011;41885;53.190;7.984;2022-08-21T00:11:34;3.83;;;1.80;;
32473;SDS011;41885;53.190;7.984;2022-08-21T00:15:40;3.72;;;1.73;;
32473;SDS011;41885;53.190;7.984;2022-08-21T00:19:44;4.75;;;1.55;;
32473;SDS011;41885;53.190;7.984;2022-08-21T00:27:48;1.73;;;1.48;;
32473;SDS011;41885;53.190;7.984;2022-08-21T00:31:50;9.88;;;2.10;;
32473;SDS011;41885;53.190;7.984;2022-08-21T00:35:53;5.82;;;1.73;;
32473;SDS011;41885;53.190;7.984;2022-08-21T00:39:56;6.47;;;2.33;;
32473;SDS011;41885;53.190;7.984;2022-08-21T00:43:58;5.80;;;2.25;;
32473;SDS011;41885;53.190;7.984;2022-08-21T00:48:00;7.22;;;2.67;;
32473;SDS011;41885;53.190;7.984;2022-08-21T00:52:04;6.03;;;2.22;;
32473;SDS011;41885;53.190;7.984;2022-08-21T00:56:10;6.53;;;2.58;;
32473;SDS011;41885;53.190;7.984;2022-08-21T01:00:14;7.28;;;2.10;;
32473;SDS011;41885;53.190;7.984;2022-08-21T01:04:19;5.03;;;1.98;;
32473;SDS011;41885;53.190;7.984;2022-08-21T01:08:23;6.38;;;2.22;;
32473;SDS011;41885;53.190;7.984;2022-08-21T01:12:27;5.90;;;2.30;;
32473;SDS011;41885;53.190;7.984;2022-08-21T01:16:30;7.17;;;2.30;;
32473;SDS011;41885;53.190;7.984;2022-08-21T01:20:34;8.25;;;1.67;;
32473;SDS011;41885;53.190;7.984;2022-08-21T01:24:38;4.23;;;2.30;;
32473;SDS011;41885;53.190;7.984;2022-08-21T01:28:42;6.63;;;2.22;;
32473;SDS011;41885;53.190;7.984;2022-08-21T01:32:49;5.65;;;1.98;;
32473;SDS011;41885;53.190;7.984;2022-08-21T01:36:52;5.93;;;2.35;;
32473;SDS011;41885;53.190;7.984;2022-08-21T01:40:56;5.72;;;2.00;;
32473;SDS011;41885;53.190;7.984;2022-08-21T01:44:58;6.15;;;1.98;;
32473;SDS011;41885;53.190;7.984;2022-08-21T01:49:00;6.97;;;2.50;;
32473;SDS011;41885;53.190;7.984;2022-08-21T01:53:02;12.20;;;2.72;;
32473;SDS011;41885;53.190;7.984;2022-08-21T01:57:06;6.32;;;2.95;;
32473;SDS011;41885;53.190;7.984;2022-08-21T02:01:09;4.43;;;2.47;;
32473;SDS011;41885;53.190;7.984;2022-08-21T02:05:12;7.10;;;2.50;;
32473;SDS011;41885;53.190;7.984;2022-08-21T02:09:15;6.87;;;2.87;;
32473;SDS011;41885;53.190;7.984;2022-08-21T02:13:19;7.47;;;2.88;;
32473;SDS011;41885;53.190;7.984;2022-08-21T02:17:21;4.90;;;2.72;;
32473;SDS011;41885;53.190;7.984;2022-08-21T02:21:23;4.50;;;2.00;;
32473;SDS011;41885;53.190;7.984;2022-08-21T02:25:26;4.90;;;2.75;;
32473;SDS011;41885;53.190;7.984;2022-08-21T02:33:32;5.43;;;2.45;;
32473;SDS011;41885;53.190;7.984;2022-08-21T02:37:42;7.72;;;3.13;;
32473;SDS011;41885;53.190;7.984;2022-08-21T02:41:45;6.40;;;3.20;;
32473;SDS011;41885;53.190;7.984;2022-08-21T02:45:48;7.10;;;2.88;;
32473;SDS011;41885;53.190;7.984;2022-08-21T02:49:51;9.18;;;3.30;;
32473;SDS011;41885;53.190;7.984;2022-08-21T02:53:53;11.75;;;3.63;;
32473;SDS011;41885;53.190;7.984;2022-08-21T02:57:56;6.20;;;3.10;;
32473;SDS011;41885;53.190;7.984;2022-08-21T03:02:00;4.72;;;2.80;;
32473;SDS011;41885;53.190;7.984;2022-08-21T03:06:02;4.70;;;3.17;;
32473;SDS011;41885;53.190;7.984;2022-08-21T03:10:05;10.07;;;3.50;;
32473;SDS011;41885;53.190;7.984;2022-08-21T03:14:08;5.32;;;2.80;;
32473;SDS011;41885;53.190;7.984;2022-08-21T03:18:12;6.03;;;2.80;;
32473;SDS011;41885;53.190;7.984;2022-08-21T03:22:14;3.85;;;2.85;;
32473;SDS011;41885;53.190;7.984;2022-08-21T03:26:17;5.03;;;2.78;;
32473;SDS011;41885;53.190;7.984;2022-08-21T03:30:20;7.53;;;3.00;;
32473;SDS011;41885;53.190;7.984;2022-08-21T03:34:24;8.02;;;3.05;;
32473;SDS011;41885;53.190;7.984;2022-08-21T03:38:26;5.63;;;3.10;;
32473;SDS011;41885;53.190;7.984;2022-08-21T03:42:31;6.57;;;3.28;;
32473;SDS011;41885;53.190;7.984;2022-08-21T03:46:33;8.85;;;3.08;;
32473;SDS011;41885;53.190;7.984;2022-08-21T03:50:38;6.35;;;3.08;;
32473;SDS011;41885;53.190;7.984;2022-08-21T03:54:42;7.43;;;2.80;;
32473;SDS011;41885;53.190;7.984;2022-08-21T03:58:44;4.05;;;2.83;;
32473;SDS011;41885;53.190;7.984;2022-08-21T04:02:46;9.73;;;2.95;;
32473;SDS011;41885;53.190;7.984;2022-08-21T04:06:50;4.00;;;2.83;;
32473;SDS011;41885;53.190;7.984;2022-08-21T04:10:53;4.15;;;2.72;;
32473;SDS011;41885;53.190;7.984;2022-08-21T04:14:58;7.15;;;3.58;;
32473;SDS011;41885;53.190;7.984;2022-08-21T04:19:02;5.32;;;3.47;;
32473;SDS011;41885;53.190;7.984;2022-08-21T04:23:05;6.22;;;3.25;;
32473;SDS011;41885;53.190;7.984;2022-08-21T04:27:08;5.25;;;3.13;;
32473;SDS011;41885;53.190;7.984;2022-08-21T04:31:10;5.50;;;3.20;;
32473;SDS011;41885;53.190;7.984;2022-08-21T04:35:12;6.53;;;3.60;;
32473;SDS011;41885;53.190;7.984;2022-08-21T04:39:18;10.60;;;4.15;;
32473;SDS011;41885;53.190;7.984;2022-08-21T04:43:20;5.13;;;3.17;;
32473;SDS011;41885;53.190;7.984;2022-08-21T04:47:23;11.13;;;3.53;;
32473;SDS011;41885;53.190;7.984;2022-08-21T04:51:27;9.20;;;4.35;;
32473;SDS011;41885;53.190;7.984;2022-08-21T04:55:32;4.40;;;3.35;;
32473;SDS011;41885;53.190;7.984;2022-08-21T04:59:35;5.90;;;3.60;;
32473;SDS011;41885;53.190;7.984;2022-08-21T05:03:39;6.03;;;3.78;;
32473;SDS011;41885;53.190;7.984;2022-08-21T05:07:42;6.22;;;3.50;;
32473;SDS011;41885;53.190;7.984;2022-08-21T05:11:47;11.85;;;4.60;;
32473;SDS011;41885;53.190;7.984;2022-08-21T05:15:50;7.22;;;4.45;;
32473;SDS011;41885;53.190;7.984;2022-08-21T05:19:52;14.38;;;4.63;;
32473;SDS011;41885;53.190;7.984;2022-08-21T05:23:54;11.70;;;4.45;;
32473;SDS011;41885;53.190;7.984;2022-08-21T05:27:58;14.65;;;4.60;;
32473;SDS011;41885;53.190;7.984;2022-08-21T05:32:00;10.77;;;5.50;;
32473;SDS011;41885;53.190;7.984;2022-08-21T05:36:02;9.15;;;5.20;;
32473;SDS011;41885;53.190;7.984;2022-08-21T05:44:10;10.65;;;4.78;;
32473;SDS011;41885;53.190;7.984;2022-08-21T05:48:12;9.68;;;5.20;;
32473;SDS011;41885;53.190;7.984;2022-08-21T05:52:18;9.45;;;4.40;;
32473;SDS011;41885;53.190;7.984;2022-08-21T05:56:20;11.65;;;4.47;;
32473;SDS011;41885;53.190;7.984;2022-08-21T06:00:24;10.25;;;4.75;;
32473;SDS011;41885;53.190;7.984;2022-08-21T06:04:26;13.57;;;5.03;;
32473;SDS011;41885;53.190;7.984;2022-08-21T06:08:29;11.13;;;4.33;;
32473;SDS011;41885;53.190;7.984;2022-08-21T06:12:31;11.35;;;4.90;;
32473;SDS011;41885;53.190;7.984;2022-08-21T06:16:35;10.70;;;4.95;;
32473;SDS011;41885;53.190;7.984;2022-08-21T06:20:36;11.35;;;4.22;;
32473;SDS011;41885;53.190;7.984;2022-08-21T06:24:39;7.63;;;4.13;;
32473;SDS011;41885;53.190;7.984;2022-08-21T06:28:41;10.88;;;4.82;;
32473;SDS011;41885;53.190;7.984;2022-08-21T06:32:45;10.37;;;4.70;;
32473;SDS011;41885;53.190;7.984;2022-08-21T06:36:47;17.52;;;5.60;;
32473;SDS011;41885;53.190;7.984;2022-08-21T06:40:49;7.75;;;4.35;;
32473;SDS011;41885;53.190;7.984;2022-08-21T06:44:51;9.55;;;4.38;;
32473;SDS011;41885;53.190;7.984;2022-08-21T06:48:55;10.55;;;4.30;;
32473;SDS011;41885;53.190;7.984;2022-08-21T06:52:58;15.80;;;3.97;;
32473;SDS011;41885;53.190;7.984;2022-08-21T06:57:01;11.07;;;3.95;;
32473;SDS011;41885;53.190;7.984;2022-08-21T07:01:03;6.50;;;3.75;;
32473;SDS011;41885;53.190;7.984;2022-08-21T07:05:08;10.87;;;3.80;;
32473;SDS011;41885;53.190;7.984;2022-08-21T07:09:10;13.02;;;4.03;;
32473;SDS011;41885;53.190;7.984;2022-08-21T07:13:12;8.00;;;3.42;;
32473;SDS011;41885;53.190;7.984;2022-08-21T07:17:15;7.10;;;3.50;;
32473;SDS011;41885;53.190;7.984;2022-08-21T07:21:18;10.23;;;2.90;;
32473;SDS011;41885;53.190;7.984;2022-08-21T07:25:20;8.60;;;3.30;;
32473;SDS011;41885;53.190;7.984;2022-08-21T07:29:22;7.72;;;2.35;;
32473;SDS011;41885;53.190;7.984;2022-08-21T07:33:24;11.77;;;2.85;;
32473;SDS011;41885;53.190;7.984;2022-08-21T07:37:29;8.00;;;2.92;;
32473;SDS011;41885;53.190;7.984;2022-08-21T07:41:31;6.05;;;2.92;;
32473;SDS011;41885;53.190;7.984;2022-08-21T07:45:34;4.80;;;2.03;;
32473;SDS011;41885;53.190;7.984;2022-08-21T07:49:36;8.95;;;2.67;;
32473;SDS011;41885;53.190;7.984;2022-08-21T07:53:40;13.07;;;2.58;;
32473;SDS011;41885;53.190;7.984;2022-08-21T07:57:42;8.45;;;2.35;;
32473;SDS011;41885;53.190;7.984;2022-08-21T08:01:45;12.90;;;2.53;;
32473;SDS011;41885;53.190;7.984;2022-08-21T08:05:47;5.35;;;1.95;;
32473;SDS011;41885;53.190;7.984;2022-08-21T08:09:50;6.95;;;2.22;;
32473;SDS011;41885;53.190;7.984;2022-08-21T08:13:52;3.55;;;1.55;;
32473;SDS011;41885;53.190;7.984;2022-08-21T08:17:55;16.27;;;2.72;;
32473;SDS011;41885;53.190;7.984;2022-08-21T08:21:57;4.82;;;1.80;;
32473;SDS011;41885;53.190;7.984;2022-08-21T08:26:00;5.90;;;1.60;;
32473;SDS011;41885;53.190;7.984;2022-08-21T08:30:04;8.52;;;2.10;;
32473;SDS011;41885;53.190;7.984;2022-08-21T08:34:07;7.40;;;1.65;;
32473;SDS011;41885;53.190;7.984;2022-08-21T08:38:09;4.80;;;1.70;;
32473;SDS011;41885;53.190;7.984;2022-08-21T08:42:14;5.93;;;1.80;;
32473;SDS011;41885;53.190;7.984;2022-08-21T08:46:29;7.15;;;1.85;;
32473;SDS011;41885;53.190;7.984;2022-08-21T08:50:39;7.22;;;1.88;;
32473;SDS011;41885;53.190;7.984;2022-08-21T08:54:46;6.20;;;1.70;;
32473;SDS011;41885;53.190;7.984;2022-08-21T08:58:53;7.57;;;2.15;;
32473;SDS011;41885;53.190;7.984;2022-08-21T09:03:01;4.40;;;1.80;;
32473;SDS011;41885;53.190;7.984;2022-08-21T09:07:07;5.00;;;1.45;;
32473;SDS011;41885;53.190;7.984;2022-08-21T09:11:21;7.28;;;2.08;;
32473;SDS011;41885;53.190;7.984;2022-08-21T09:15:31;8.18;;;2.20;;
32473;SDS011;41885;53.190;7.984;2022-08-21T09:19:41;9.30;;;1.95;;
32473;SDS011;41885;53.190;7.984;2022-08-21T09:23:55;5.60;;;1.48;;
32473;SDS011;41885;53.190;7.984;2022-08-21T09:28:01;6.45;;;1.52;;
32473;SDS011;41885;53.190;7.984;2022-08-21T09:36:22;6.68;;;1.80;;
32473;SDS011;41885;53.190;7.984;2022-08-21T09:40:29;6.00;;;1.35;;
32473;SDS011;41885;53.190;7.984;2022-08-21T09:44:34;5.05;;;1.63;;
32473;SDS011;41885;53.190;7.984;2022-08-21T09:48:42;9.40;;;1.92;;
32473;SDS011;41885;53.190;7.984;2022-08-21T09:52:48;9.02;;;1.65;;
32473;SDS011;41885;53.190;7.984;2022-08-21T09:56:54;4.38;;;1.13;;
32473;SDS011;41885;53.190;7.984;2022-08-21T10:01:16;5.72;;;1.50;;
32473;SDS011;41885;53.190;7.984;2022-08-21T10:05:23;12.35;;;1.77;;
32473;SDS011;41885;53.190;7.984;2022-08-21T10:09:28;7.43;;;1.83;;
32473;SDS011;41885;53.190;7.984;2022-08-21T10:13:34;6.03;;;1.67;;
32473;SDS011;41885;53.190;7.984;2022-08-21T10:17:49;4.50;;;1.38;;
32473;SDS011;41885;53.190;7.984;2022-08-21T10:22:02;5.45;;;1.33;;
32473;SDS011;41885;53.190;7.984;2022-08-21T10:26:20;8.50;;;1.30;;
32473;SDS011;41885;53.190;7.984;2022-08-21T10:30:35;6.55;;;1.25;;
32473;SDS011;41885;53.190;7.984;2022-08-21T10:34:45;2.90;;;0.98;;
32473;SDS011;41885;53.190;7.984;2022-08-21T10:39:04;3.70;;;1.25;;
32473;SDS011;41885;53.190;7.984;2022-08-21T10:43:20;4.15;;;1.73;;
32473;SDS011;41885;53.190;7.984;2022-08-21T10:47:32;4.93;;;1.00;;
32473;SDS011;41885;53.190;7.984;2022-08-21T10:51:38;3.67;;;1.10;;
32473;SDS011;41885;53.190;7.984;2022-08-21T10:55:50;8.38;;;1.30;;
32473;SDS011;41885;53.190;7.984;2022-08-21T10:59:59;6.45;;;1.10;;
32473;SDS011;41885;53.190;7.984;2022-08-21T11:04:09;3.28;;;0.93;;
32473;SDS011;41885;53.190;7.984;2022-08-21T11:08:18;7.28;;;1.48;;
32473;SDS011;41885;53.190;7.984;2022-08-21T11:12:27;3.85;;;1.40;;
32473;SDS011;41885;53.190;7.984;2022-08-21T11:16:37;2.95;;;0.98;;
32473;SDS011;41885;53.190;7.984;2022-08-21T11:20:43;6.72;;;1.73;;
32473;SDS011;41885;53.190;7.984;2022-08-21T11:24:54;4.60;;;1.17;;
32473;SDS011;41885;53.190;7.984;2022-08-21T11:29:04;3.42;;;1.20;;
32473;SDS011;41885;53.190;7.984;2022-08-21T11:33:18;7.15;;;1.35;;
32473;SDS011;41885;53.190;7.984;2022-08-21T11:37:37;2.72;;;1.08;;
32473;SDS011;41885;53.190;7.984;2022-08-21T11:41:57;4.15;;;1.30;;
32473;SDS011;41885;53.190;7.984;2022-08-21T11:46:15;4.32;;;1.35;;
32473;SDS011;41885;53.190;7.984;2022-08-21T11:50:27;7.82;;;1.25;;
32473;SDS011;41885;53.190;7.984;2022-08-21T11:54:33;5.57;;;1.23;;
32473;SDS011;41885;53.190;7.984;2022-08-21T11:58:39;3.13;;;1.13;;
32473;SDS011;41885;53.190;7.984;2022-08-21T12:02:47;5.47;;;1.25;;
32473;SDS011;41885;53.190;7.984;2022-08-21T12:06:52;3.65;;;1.15;;
32473;SDS011;41885;53.190;7.984;2022-08-21T12:10:59;3.15;;;1.05;;
32473;SDS011;41885;53.190;7.984;2022-08-21T12:15:11;2.13;;;1.13;;
32473;SDS011;41885;53.190;7.984;2022-08-21T12:19:29;2.65;;;0.95;;
32473;SDS011;41885;53.190;7.984;2022-08-21T12:23:34;3.55;;;0.88;;
32473;SDS011;41885;53.190;7.984;2022-08-21T12:27:47;1.17;;;0.60;;
32473;SDS011;41885;53.190;7.984;2022-08-21T12:31:55;2.10;;;0.90;;
32473;SDS011;41885;53.190;7.984;2022-08-21T12:36:04;8.00;;;1.27;;
32473;SDS011;41885;53.190;7.984;2022-08-21T12:40:10;5.97;;;1.35;;
32473;SDS011;41885;53.190;7.984;2022-08-21T12:44:21;1.98;;;1.10;;
32473;SDS011;41885;53.190;7.984;2022-08-21T12:48:31;3.92;;;0.90;;
32473;SDS011;41885;53.190;7.984;2022-08-21T12:52:39;2.13;;;0.70;;
32473;SDS011;41885;53.190;7.984;2022-08-21T12:56:55;5.90;;;0.90;;
32473;SDS011;41885;53.190;7.984;2022-08-21T13:01:00;2.58;;;1.00;;
32473;SDS011;41885;53.190;7.984;2022-08-21T13:05:05;1.98;;;0.73;;
32473;SDS011;41885;53.190;7.984;2022-08-21T13:09:11;3.80;;;1.05;;
32473;SDS011;41885;53.190;7.984;2022-08-21T13:13:16;2.28;;;0.93;;
32473;SDS011;41885;53.190;7.984;2022-08-21T13:17:22;3.35;;;0.80;;
32473;SDS011;41885;53.190;7.984;2022-08-21T13:21:30;2.88;;;0.90;;
32473;SDS011;41885;53.190;7.984;2022-08-21T13:25:35;5.93;;;1.35;;
32473;SDS011;41885;53.190;7.984;2022-08-21T13:29:38;2.88;;;0.90;;
32473;SDS011;41885;53.190;7.984;2022-08-21T13:33:40;5.15;;;0.90;;
32473;SDS011;41885;53.190;7.984;2022-08-21T13:37:43;2.90;;;0.70;;
32473;SDS011;41885;53.190;7.984;2022-08-21T13:41:49;2.83;;;0.90;;
32473;SDS011;41885;53.190;7.984;2022-08-21T13:45:55;5.25;;;1.13;;
32473;SDS011;41885;53.190;7.984;2022-08-21T13:49:58;3.40;;;1.05;;
32473;SDS011;41885;53.190;7.984;2022-08-21T13:54:01;1.42;;;0.90;;
32473;SDS011;41885;53.190;7.984;2022-08-21T13:58:23;4.05;;;0.75;;
32473;SDS011;41885;53.190;7.984;2022-08-21T14:02:27;6.00;;;1.02;;
32473;SDS011;41885;53.190;7.984;2022-08-21T14:06:32;3.25;;;0.80;;
32473;SDS011;41885;53.190;7.984;2022-08-21T14:10:41;3.03;;;0.85;;
32473;SDS011;41885;53.190;7.984;2022-08-21T14:14:46;2.25;;;0.70;;
32473;SDS011;41885;53.190;7.984;2022-08-21T14:18:49;3.25;;;0.95;;
32473;SDS011;41885;53.190;7.984;2022-08-21T14:22:54;0.70;;;0.60;;
32473;SDS011;41885;53.190;7.984;2022-08-21T14:26:57;3.30;;;0.70;;
32473;SDS011;41885;53.190;7.984;2022-08-21T14:31:14;4.03;;;1.13;;
32473;SDS011;41885;53.190;7.984;2022-08-21T14:35:18;5.97;;;0.98;;
32473;SDS011;41885;53.190;7.984;2022-08-21T14:39:21;4.78;;;1.08;;
32473;SDS011;41885;53.190;7.984;2022-08-21T14:43:23;2.88;;;0.95;;
32473;SDS011;41885;53.190;7.984;2022-08-21T14:47:29;3.15;;;0.82;;
32473;SDS011;41885;53.190;7.984;2022-08-21T14:51:31;3.58;;;0.95;;
32473;SDS011;41885;53.190;7.984;2022-08-21T14:55:33;2.40;;;0.80;;
32473;SDS011;41885;53.190;7.984;2022-08-21T14:59:56;2.92;;;0.50;;
32473;SDS011;41885;53.190;7.984;2022-08-21T15:08:02;2.97;;;1.20;;
32473;SDS011;41885;53.190;7.984;2022-08-21T15:12:05;3.53;;;0.90;;
32473;SDS011;41885;53.190;7.984;2022-08-21T15:16:09;6.85;;;1.33;;
32473;SDS011;41885;53.190;7.984;2022-08-21T15:20:14;5.03;;;1.35;;
32473;SDS011;41885;53.190;7.984;2022-08-21T15:24:16;5.57;;;0.90;;
32473;SDS011;41885;53.190;7.984;2022-08-21T15:28:18;5.95;;;1.48;;
32473;SDS011;41885;53.190;7.984;2022-08-21T15:32:22;2.75;;;1.13;;
32473;SDS011;41885;53.190;7.984;2022-08-21T15:36:28;4.72;;;0.95;;
32473;SDS011;41885;53.190;7.984;2022-08-21T15:40:31;6.82;;;1.45;;
32473;SDS011;41885;53.190;7.984;2022-08-21T15:44:33;5.35;;;1.70;;
32473;SDS011;41885;53.190;7.984;2022-08-21T15:48:35;7.22;;;1.63;;
32473;SDS011;41885;53.190;7.984;2022-08-21T15:52:38;6.78;;;1.50;;
32473;SDS011;41885;53.190;7.984;2022-08-21T15:56:42;5.20;;;1.20;;
32473;SDS011;41885;53.190;7.984;2022-08-21T16:00:47;7.20;;;1.73;;
32473;SDS011;41885;53.190;7.984;2022-08-21T16:04:49;6.20;;;1.35;;
32473;SDS011;41885;53.190;7.984;2022-08-21T16:08:52;5.00;;;1.60;;
32473;SDS011;41885;53.190;7.984;2022-08-21T16:16:59;3.95;;;1.20;;
32473;SDS011;41885;53.190;7.984;2022-08-21T16:21:01;3.50;;;1.02;;
32473;SDS011;41885;53.190;7.984;2022-08-21T16:25:05;9.93;;;1.67;;
32473;SDS011;41885;53.190;7.984;2022-08-21T16:29:08;2.28;;;1.33;;
32473;SDS011;41885;53.190;7.984;2022-08-21T16:33:12;4.53;;;1.23;;
32473;SDS011;41885;53.190;7.984;2022-08-21T16:37:22;4.90;;;1.05;;
32473;SDS011;41885;53.190;7.984;2022-08-21T16:41:27;6.55;;;1.63;;
32473;SDS011;41885;53.190;7.984;2022-08-21T16:45:32;5.25;;;1.20;;
32473;SDS011;41885;53.190;7.984;2022-08-21T16:49:34;6.80;;;1.50;;
32473;SDS011;41885;53.190;7.984;2022-08-21T16:53:37;10.55;;;1.70;;
32473;SDS011;41885;53.190;7.984;2022-08-21T16:57:40;7.15;;;1.70;;
32473;SDS011;41885;53.190;7.984;2022-08-21T17:01:43;8.38;;;1.45;;
32473;SDS011;41885;53.190;7.984;2022-08-21T17:05:46;6.57;;;1.52;;
32473;SDS011;41885;53.190;7.984;2022-08-21T17:09:48;4.97;;;1.40;;
32473;SDS011;41885;53.190;7.984;2022-08-21T17:13:52;3.05;;;0.90;;
32473;SDS011;41885;53.190;7.984;2022-08-21T17:17:55;9.38;;;1.52;;
32473;SDS011;41885;53.190;7.984;2022-08-21T17:21:58;5.28;;;1.80;;
32473;SDS011;41885;53.190;7.984;2022-08-21T17:26:00;7.57;;;1.73;;
32473;SDS011;41885;53.190;7.984;2022-08-21T17:30:04;13.10;;;2.15;;
32473;SDS011;41885;53.190;7.984;2022-08-21T17:34:07;5.15;;;0.93;;
32473;SDS011;41885;53.190;7.984;2022-08-21T17:38:10;4.82;;;1.13;;
32473;SDS011;41885;53.190;7.984;2022-08-21T17:42:13;16.10;;;2.22;;
32473;SDS011;41885;53.190;7.984;2022-08-21T17:46:18;7.97;;;1.30;;
32473;SDS011;41885;53.190;7.984;2022-08-21T17:50:22;9.25;;;1.40;;
32473;SDS011;41885;53.190;7.984;2022-08-21T17:54:24;9.10;;;1.60;;
32473;SDS011;41885;53.190;7.984;2022-08-21T17:58:26;2.63;;;1.08;;
32473;SDS011;41885;53.190;7.984;2022-08-21T18:02:29;11.00;;;1.38;;
32473;SDS011;41885;53.190;7.984;2022-08-21T18:06:32;8.98;;;1.35;;
32473;SDS011;41885;53.190;7.984;2022-08-21T18:10:34;4.75;;;1.08;;
32473;SDS011;41885;53.190;7.984;2022-08-21T18:14:37;9.30;;;1.67;;
32473;SDS011;41885;53.190;7.984;2022-08-21T18:18:41;9.38;;;1.40;;
32473;SDS011;41885;53.190;7.984;2022-08-21T18:22:44;9.20;;;1.48;;
32473;SDS011;41885;53.190;7.984;2022-08-21T18:26:46;6.05;;;1.83;;
32473;SDS011;41885;53.190;7.984;2022-08-21T18:34:55;8.68;;;1.95;;
32473;SDS011;41885;53.190;7.984;2022-08-21T18:38:58;3.40;;;1.05;;
32473;SDS011;41885;53.190;7.984;2022-08-21T18:43:00;5.70;;;1.55;;
32473;SDS011;41885;53.190;7.984;2022-08-21T18:47:04;6.13;;;1.50;;
32473;SDS011;41885;53.190;7.984;2022-08-21T18:51:12;7.55;;;1.67;;
32473;SDS011;41885;53.190;7.984;2022-08-21T18:59:16;12.02;;;2.03;;
32473;SDS011;41885;53.190;7.984;2022-08-21T19:03:19;5.13;;;1.55;;
32473;SDS011;41885;53.190;7.984;2022-08-21T19:07:24;11.38;;;1.77;;
32473;SDS011;41885;53.190;7.984;2022-08-21T19:11:26;9.30;;;1.75;;
32473;SDS011;41885;53.190;7.984;2022-08-21T19:15:29;7.97;;;2.10;;
32473;SDS011;41885;53.190;7.984;2022-08-21T19:19:31;9.02;;;1.75;;
32473;SDS011;41885;53.190;7.984;2022-08-21T19:23:35;6.00;;;1.60;;
32473;SDS011;41885;53.190;7.984;2022-08-21T19:27:37;7.43;;;1.45;;
32473;SDS011;41885;53.190;7.984;2022-08-21T19:31:41;8.27;;;1.88;;
32473;SDS011;41885;53.190;7.984;2022-08-21T19:35:46;10.13;;;1.50;;
32473;SDS011;41885;53.190;7.984;2022-08-21T19:39:51;7.57;;;2.08;;
32473;SDS011;41885;53.190;7.984;2022-08-21T19:43:54;13.25;;;1.88;;
32473;SDS011;41885;53.190;7.984;2022-08-21T19:47:59;10.52;;;1.67;;
32473;SDS011;41885;53.190;7.984;2022-08-21T19:52:02;4.83;;;2.20;;
32473;SDS011;41885;53.190;7.984;2022-08-21T19:56:06;7.43;;;2.10;;
32473;SDS011;41885;53.190;7.984;2022-08-21T20:00:14;6.30;;;1.63;;
32473;SDS011;41885;53.190;7.984;2022-08-21T20:04:18;10.63;;;1.92;;
32473;SDS011;41885;53.190;7.984;2022-08-21T20:08:22;6.45;;;1.98;;
32473;SDS011;41885;53.190;7.984;2022-08-21T20:12:27;6.57;;;1.80;;
32473;SDS011;41885;53.190;7.984;2022-08-21T20:16:29;10.02;;;2.30;;
32473;SDS011;41885;53.190;7.984;2022-08-21T20:20:31;6.07;;;1.85;;
32473;SDS011;41885;53.190;7.984;2022-08-21T20:24:33;6.03;;;1.88;;
32473;SDS011;41885;53.190;7.984;2022-08-21T20:28:37;3.47;;;1.63;;
32473;SDS011;41885;53.190;7.984;2022-08-21T20:32:39;3.80;;;1.63;;
32473;SDS011;41885;53.190;7.984;2022-08-21T20:36:41;8.43;;;1.80;;
32473;SDS011;41885;53.190;7.984;2022-08-21T20:40:43;12.80;;;1.70;;
32473;SDS011;41885;53.190;7.984;2022-08-21T20:44:49;7.28;;;1.50;;
32473;SDS011;41885;53.190;7.984;2022-08-21T20:48:53;5.40;;;1.85;;
32473;SDS011;41885;53.190;7.984;2022-08-21T20:52:59;5.10;;;1.50;;
32473;SDS011;41885;53.190;7.984;2022-08-21T20:57:08;6.63;;;1.98;;
32473;SDS011;41885;53.190;7.984;2022-08-21T21:01:15;10.93;;;2.00;;
32473;SDS011;41885;53.190;7.984;2022-08-21T21:05:19;11.85;;;2.38;;
32473;SDS011;41885;53.190;7.984;2022-08-21T21:09:26;7.55;;;1.75;;
32473;SDS011;41885;53.190;7.984;2022-08-21T21:13:35;16.30;;;2.13;;
32473;SDS011;41885;53.190;7.984;2022-08-21T21:17:44;5.45;;;1.70;;
32473;SDS011;41885;53.190;7.984;2022-08-21T21:21:53;7.40;;;1.73;;
32473;SDS011;41885;53.190;7.984;2022-08-21T21:26:02;3.70;;;1.23;;
32473;SDS011;41885;53.190;7.984;2022-08-21T21:30:11;7.90;;;2.10;;
32473;SDS011;41885;53.190;7.984;2022-08-21T21:34:18;6.85;;;1.60;;
32473;SDS011;41885;53.190;7.984;2022-08-21T21:42:26;10.90;;;1.70;;
32473;SDS011;41885;53.190;7.984;2022-08-21T21:46:35;6.20;;;2.00;;
32473;SDS011;41885;53.190;7.984;2022-08-21T21:50:54;5.45;;;1.40;;
32473;SDS011;41885;53.190;7.984;2022-08-21T21:55:03;5.72;;;1.48;;
32473;SDS011;41885;53.190;7.984;2022-08-21T21:59:16;10.95;;;1.63;;
32473;SDS011;41885;53.190;7.984;2022-08-21T22:03:26;4.60;;;1.27;;
32473;SDS011;41885;53.190;7.984;2022-08-21T22:07:36;9.75;;;1.70;;
32473;SDS011;41885;53.190;7.984;2022-08-21T22:11:45;4.20;;;1.40;;
32473;SDS011;41885;53.190;7.984;2022-08-21T22:15:56;5.75;;;1.58;;
32473;SDS011;41885;53.190;7.984;2022-08-21T22:19:58;7.07;;;1.80;;
32473;SDS011;41885;53.190;7.984;2022-08-21T22:24:08;9.90;;;1.58;;
32473;SDS011;41885;53.190;7.984;2022-08-21T22:28:16;8.35;;;1.13;;
32473;SDS011;41885;53.190;7.984;2022-08-21T22:32:24;10.65;;;1.85;;
32473;SDS011;41885;53.190;7.984;2022-08-21T22:36:28;6.15;;;1.65;;
32473;SDS011;41885;53.190;7.984;2022-08-21T22:40:34;6.20;;;1.83;;
32473;SDS011;41885;53.190;7.984;2022-08-21T22:44:45;9.25;;;2.00;;
32473;SDS011;41885;53.190;7.984;2022-08-21T22:48:50;8.60;;;1.50;;
32473;SDS011;41885;53.190;7.984;2022-08-21T22:52:55;6.28;;;1.48;;
32473;SDS011;41885;53.190;7.984;2022-08-21T22:57:03;7.38;;;1.77;;
32473;SDS011;41885;53.190;7.984;2022-08-21T23:01:11;7.65;;;2.00;;
32473;SDS011;41885;53.190;7.984;2022-08-21T23:05:33;4.40;;;1.75;;
32473;SDS011;41885;53.190;7.984;2022-08-21T23:09:43;6.35;;;1.55;;
32473;SDS011;41885;53.190;7.984;2022-08-21T23:13:49;9.07;;;1.80;;
32473;SDS011;41885;53.190;7.984;2022-08-21T23:17:54;3.05;;;1.10;;
32473;SDS011;41885;53.190;7.984;2022-08-21T23:26:17;4.60;;;1.50;;
32473;SDS011;41885;53.190;7.984;2022-08-21T23:30:26;8.13;;;1.75;;
32473;SDS011;41885;53.190;7.984;2022-08-21T23:34:49;4.63;;;1.42;;
32473;SDS011;41885;53.190;7.984;2022-08-21T23:39:08;5.47;;;1.90;;
32473;SDS011;41885;53.190;7.984;2022-08-21T23:43:22;9.43;;;2.22;;
32473;SDS011;41885;53.190;7.984;2022-08-21T23:47:37;10.35;;;1.83;;
32473;SDS011;41885;53.190;7.984;2022-08-21T23:51:50;3.30;;;1.17;;
32473;SDS011;41885;53.190;7.984;2022-08-21T23:56:04;8.80;;;1.73;;
